createdAt,value
2023-05-20T00:00:50.297Z,14.27
2023-05-20T00:03:17.839Z,14.21
2023-05-20T00:05:45.084Z,14.20
2023-05-20T00:08:12.450Z,14.21
2023-05-20T00:10:40.007Z,14.17
2023-05-20T00:13:07.658Z,14.15
2023-05-20T00:15:36.722Z,14.11
2023-05-20T00:18:04.617Z,14.08
2023-05-20T00:20:32.799Z,14.03
2023-05-20T00:23:00.126Z,13.98
2023-05-20T00:25:27.570Z,13.97
2023-05-20T00:27:54.616Z,13.93
2023-05-20T00:30:21.966Z,13.83
2023-05-20T00:32:49.146Z,13.81
2023-05-20T00:35:16.392Z,13.77
2023-05-20T00:37:43.620Z,13.74
2023-05-20T00:40:13.050Z,13.73
2023-05-20T00:42:42.018Z,13.65
2023-05-20T00:45:09.601Z,13.62
2023-05-20T00:47:37.502Z,13.59
2023-05-20T00:50:05.188Z,13.61
2023-05-20T00:52:33.366Z,13.59
2023-05-20T00:55:00.679Z,13.55
2023-05-20T00:57:27.873Z,13.49
2023-05-20T00:59:55.552Z,13.47
2023-05-20T01:02:22.996Z,13.44
2023-05-20T01:04:50.353Z,13.37
2023-05-20T01:07:18.786Z,13.38
2023-05-20T01:09:46.085Z,13.32
2023-05-20T01:12:44.139Z,13.33
2023-05-20T01:15:13.029Z,13.25
2023-05-20T01:17:45.258Z,13.27
2023-05-20T01:20:16.193Z,13.23
2023-05-20T01:22:57.108Z,13.25
2023-05-20T01:25:25.299Z,13.18
2023-05-20T01:27:54.419Z,13.17
2023-05-20T01:30:22.503Z,13.13
2023-05-20T01:33:01.448Z,13.09
2023-05-20T01:35:29.536Z,13.02
2023-05-20T01:37:58.972Z,12.98
2023-05-20T01:40:28.043Z,12.95
2023-05-20T01:42:56.388Z,12.99
2023-05-20T01:45:25.570Z,12.98
2023-05-20T01:47:53.024Z,12.92
2023-05-20T01:50:20.124Z,12.95
2023-05-20T01:52:47.192Z,12.95
2023-05-20T01:55:14.270Z,12.90
2023-05-20T01:57:41.406Z,12.91
2023-05-20T02:00:09.896Z,12.86
2023-05-20T02:02:37.157Z,12.80
2023-05-20T02:05:04.565Z,12.77
2023-05-20T02:07:31.616Z,12.68
2023-05-20T02:09:58.618Z,12.60
2023-05-20T02:12:25.626Z,12.64
2023-05-20T02:14:52.732Z,12.67
2023-05-20T02:17:20.024Z,12.64
2023-05-20T02:19:47.420Z,12.52
2023-05-20T02:22:15.020Z,12.50
2023-05-20T02:24:43.633Z,12.50
2023-05-20T02:27:11.013Z,12.46
2023-05-20T02:29:38.091Z,12.39
2023-05-20T02:32:05.501Z,12.38
2023-05-20T02:34:33.168Z,12.39
2023-05-20T02:37:00.480Z,12.36
2023-05-20T02:39:28.723Z,12.43
2023-05-20T02:41:56.465Z,12.39
2023-05-20T02:44:23.604Z,12.52
2023-05-20T02:46:50.727Z,12.48
2023-05-20T02:49:17.784Z,12.42
2023-05-20T02:51:44.827Z,12.33
2023-05-20T02:54:12.276Z,12.31
2023-05-20T02:56:39.500Z,12.26
2023-05-20T02:59:07.394Z,12.18
2023-05-20T03:01:35.685Z,12.19
2023-05-20T03:04:03.633Z,12.19
2023-05-20T03:06:32.101Z,12.17
2023-05-20T03:08:59.613Z,12.12
2023-05-20T03:11:26.680Z,12.06
2023-05-20T03:13:53.852Z,12.12
2023-05-20T03:16:20.988Z,12.05
2023-05-20T03:18:48.524Z,11.95
2023-05-20T03:21:15.631Z,11.91
2023-05-20T03:23:42.700Z,11.88
2023-05-20T03:26:09.735Z,11.83
2023-05-20T03:28:36.888Z,11.73
2023-05-20T03:31:04.705Z,11.67
2023-05-20T03:33:33.840Z,11.69
2023-05-20T03:36:01.000Z,11.70
2023-05-20T03:38:28.171Z,11.66
2023-05-20T03:40:55.245Z,11.73
2023-05-20T03:43:22.305Z,11.65
2023-05-20T03:45:49.378Z,11.64
2023-05-20T03:48:16.781Z,11.67
2023-05-20T03:50:43.789Z,11.64
2023-05-20T03:53:10.931Z,11.67
2023-05-20T03:55:38.791Z,11.68
2023-05-20T03:58:05.775Z,11.65
2023-05-20T04:00:33.132Z,11.63
2023-05-20T04:03:00.785Z,11.63
2023-05-20T04:05:28.182Z,11.67
2023-05-20T04:07:55.260Z,11.65
2023-05-20T04:10:22.335Z,11.59
2023-05-20T04:12:49.977Z,11.65
2023-05-20T04:15:17.604Z,11.62
2023-05-20T04:17:48.667Z,11.64
2023-05-20T04:20:16.226Z,11.61
2023-05-20T04:22:43.304Z,11.68
2023-05-20T04:25:11.161Z,11.64
2023-05-20T04:27:38.417Z,11.63
2023-05-20T04:30:07.133Z,11.65
2023-05-20T04:32:34.870Z,11.60
2023-05-20T04:35:08.635Z,11.65
2023-05-20T04:37:37.582Z,11.58
2023-05-20T04:40:06.969Z,11.63
2023-05-20T04:42:34.066Z,11.74
2023-05-20T04:45:02.300Z,11.78
2023-05-20T04:47:29.615Z,11.83
2023-05-20T04:49:58.036Z,11.84
2023-05-20T04:52:25.149Z,11.80
2023-05-20T04:54:52.741Z,11.79
2023-05-20T04:57:21.333Z,11.85
2023-05-20T04:59:48.507Z,11.84
2023-05-20T05:02:15.568Z,11.85
2023-05-20T05:04:42.626Z,11.85
2023-05-20T05:07:09.799Z,11.86
2023-05-20T05:09:36.837Z,11.87
2023-05-20T05:12:04.174Z,11.93
2023-05-20T05:14:31.181Z,11.96
2023-05-20T05:16:58.331Z,12.00
2023-05-20T05:19:25.395Z,11.97
2023-05-20T05:21:52.592Z,12.04
2023-05-20T05:24:19.687Z,12.07
2023-05-20T05:26:46.752Z,12.14
2023-05-20T05:29:13.812Z,12.14
2023-05-20T05:31:41.294Z,12.21
2023-05-20T05:34:08.333Z,12.30
2023-05-20T05:36:35.523Z,12.30
2023-05-20T05:39:02.674Z,12.38
2023-05-20T05:41:29.786Z,12.47
2023-05-20T05:43:56.816Z,12.54
2023-05-20T05:46:23.895Z,12.67
2023-05-20T05:48:51.166Z,12.73
2023-05-20T05:51:18.318Z,12.80
2023-05-20T05:53:45.390Z,12.84
2023-05-20T05:56:12.454Z,12.87
2023-05-20T05:58:39.477Z,13.00
2023-05-20T06:01:07.130Z,13.07
2023-05-20T06:03:34.364Z,13.10
2023-05-20T06:06:01.672Z,13.17
2023-05-20T06:08:28.910Z,13.25
2023-05-20T06:10:55.958Z,13.32
2023-05-20T06:13:23.309Z,13.37
2023-05-20T06:15:51.267Z,13.40
2023-05-20T06:18:18.402Z,13.43
2023-05-20T06:20:45.968Z,13.48
2023-05-20T06:23:13.180Z,13.48
2023-05-20T06:25:40.249Z,13.47
2023-05-20T06:28:08.574Z,13.50
2023-05-20T06:30:35.947Z,13.51
2023-05-20T06:33:03.235Z,13.52
2023-05-20T06:35:30.312Z,13.47
2023-05-20T06:37:57.392Z,13.48
2023-05-20T06:40:24.551Z,13.51
2023-05-20T06:42:51.624Z,13.58
2023-05-20T06:45:19.033Z,13.67
2023-05-20T06:47:48.133Z,13.77
2023-05-20T06:50:15.318Z,13.80
2023-05-20T06:52:42.430Z,13.80
2023-05-20T06:55:09.811Z,13.78
2023-05-20T06:57:37.026Z,13.76
2023-05-20T07:00:06.064Z,13.83
2023-05-20T07:02:34.032Z,13.87
2023-05-20T07:05:01.264Z,13.89
2023-05-20T07:07:28.952Z,13.95
2023-05-20T07:09:56.088Z,14.04
2023-05-20T07:12:23.265Z,13.99
2023-05-20T07:14:50.797Z,13.94
2023-05-20T07:17:18.071Z,14.07
2023-05-20T07:19:45.205Z,14.13
2023-05-20T07:22:12.300Z,14.17
2023-05-20T07:24:39.389Z,14.23
2023-05-20T07:27:06.426Z,14.30
2023-05-20T07:29:33.492Z,14.31
2023-05-20T07:32:00.692Z,14.37
2023-05-20T07:34:27.800Z,14.44
2023-05-20T07:36:54.799Z,14.53
2023-05-20T07:39:21.841Z,14.60
2023-05-20T07:41:48.828Z,14.66
2023-05-20T07:44:16.282Z,14.72
2023-05-20T07:46:43.529Z,14.81
2023-05-20T07:49:10.892Z,14.88
2023-05-20T07:51:37.906Z,14.95
2023-05-20T07:54:04.980Z,15.03
2023-05-20T07:56:32.140Z,15.13
2023-05-20T07:59:00.633Z,15.23
2023-05-20T08:01:28.041Z,15.29
2023-05-20T08:03:55.629Z,15.32
2023-05-20T08:06:24.512Z,15.38
2023-05-20T08:08:51.759Z,15.46
2023-05-20T08:11:18.779Z,15.49
2023-05-20T08:13:45.988Z,15.52
2023-05-20T08:16:13.293Z,15.62
2023-05-20T08:18:40.608Z,15.77
2023-05-20T08:21:10.692Z,15.79
2023-05-20T08:23:40.343Z,15.81
2023-05-20T08:26:07.993Z,15.80
2023-05-20T08:28:37.330Z,15.87
2023-05-20T08:31:04.664Z,15.85
2023-05-20T08:33:31.799Z,15.91
2023-05-20T08:35:58.916Z,15.98
2023-05-20T08:38:25.960Z,16.04
2023-05-20T08:40:55.400Z,16.15
2023-05-20T08:43:23.196Z,16.22
2023-05-20T08:45:52.723Z,16.33
2023-05-20T08:48:22.799Z,16.35
2023-05-20T08:50:53.982Z,16.49
2023-05-20T08:53:22.786Z,16.50
2023-05-20T08:56:01.518Z,16.51
2023-05-20T08:58:30.153Z,16.55
2023-05-20T09:00:59.012Z,16.63
2023-05-20T09:03:26.454Z,16.78
2023-05-20T09:05:54.439Z,16.78
2023-05-20T09:08:28.548Z,16.77
2023-05-20T09:10:56.138Z,16.67
2023-05-20T09:13:24.680Z,16.65
2023-05-20T09:15:51.831Z,16.77
2023-05-20T09:18:18.970Z,16.76
2023-05-20T09:20:51.125Z,16.86
2023-05-20T09:23:19.918Z,16.86
2023-05-20T09:25:51.076Z,16.91
2023-05-20T09:28:25.494Z,16.95
2023-05-20T09:31:00.294Z,16.92
2023-05-20T09:33:32.309Z,16.82
2023-05-20T09:36:08.404Z,16.68
2023-05-20T09:38:39.805Z,16.60
2023-05-20T09:41:12.678Z,16.62
2023-05-20T09:43:40.701Z,16.57
2023-05-20T09:46:08.525Z,16.66
2023-05-20T09:48:37.750Z,16.71
2023-05-20T09:51:07.088Z,16.77
2023-05-20T09:53:34.608Z,16.90
2023-05-20T09:56:01.754Z,17.00
2023-05-20T09:58:29.803Z,17.09
2023-05-20T10:00:56.926Z,17.06
2023-05-20T10:03:28.585Z,17.12
2023-05-20T10:06:25.865Z,17.16
2023-05-20T10:09:06.041Z,17.25
2023-05-20T10:11:47.390Z,17.36
2023-05-20T10:14:32.566Z,17.46
2023-05-20T10:17:12.311Z,17.76
2023-05-20T10:19:39.582Z,17.89
2023-05-20T10:22:11.925Z,18.03
2023-05-20T10:24:44.241Z,17.99
2023-05-20T10:27:14.972Z,17.85
2023-05-20T10:32:36.001Z,17.55
2023-05-20T10:35:10.277Z,17.40
2023-05-20T10:37:42.801Z,17.46
2023-05-20T10:40:19.025Z,17.59
2023-05-20T10:42:46.545Z,17.63
2023-05-20T10:45:25.728Z,17.90
2023-05-20T10:47:58.060Z,17.80
2023-05-20T10:50:36.359Z,17.86
2023-05-20T10:53:13.291Z,17.85
2023-05-20T10:55:54.984Z,17.75
2023-05-20T10:58:23.853Z,17.63
2023-05-20T11:00:54.747Z,17.52
2023-05-20T11:03:22.867Z,17.40
2023-05-20T11:05:51.351Z,17.50
2023-05-20T11:08:28.406Z,17.57
2023-05-20T11:10:57.285Z,17.54
2023-05-20T11:13:26.035Z,17.70
2023-05-20T11:15:53.550Z,17.78
2023-05-20T11:18:20.809Z,17.77
2023-05-20T11:20:48.084Z,17.83
2023-05-20T11:23:15.849Z,17.85
2023-05-20T11:25:43.210Z,17.80
2023-05-20T11:28:14.289Z,17.86
2023-05-20T11:30:43.857Z,17.98
2023-05-20T11:33:15.979Z,17.95
2023-05-20T11:35:47.374Z,17.93
2023-05-20T11:38:14.775Z,17.74
2023-05-20T11:40:55.908Z,17.71
2023-05-20T11:43:24.491Z,17.69
2023-05-20T11:45:56.866Z,17.84
2023-05-20T11:48:24.335Z,17.85
2023-05-20T11:50:54.132Z,17.89
2023-05-20T11:53:24.088Z,17.90
2023-05-20T11:56:01.980Z,17.86
2023-05-20T11:58:31.166Z,17.74
2023-05-20T12:01:05.684Z,17.66
2023-05-20T12:03:45.801Z,17.59
2023-05-20T12:06:13.730Z,17.59
2023-05-20T12:08:41.064Z,17.52
2023-05-20T12:11:08.134Z,17.54
2023-05-20T12:13:35.717Z,17.68
2023-05-20T12:16:02.983Z,17.83
2023-05-20T12:18:30.051Z,17.87
2023-05-20T12:20:57.318Z,17.94
2023-05-20T12:23:24.569Z,17.96
2023-05-20T12:25:51.750Z,17.94
2023-05-20T12:28:18.910Z,18.02
2023-05-20T12:30:46.074Z,18.05
2023-05-20T12:33:13.119Z,17.93
2023-05-20T12:35:41.816Z,17.92
2023-05-20T12:38:09.800Z,17.85
2023-05-20T12:40:37.382Z,17.86
2023-05-20T12:43:06.135Z,17.89
2023-05-20T12:45:33.490Z,17.99
2023-05-20T12:48:00.868Z,18.00
2023-05-20T12:50:31.120Z,17.98
2023-05-20T12:52:58.235Z,17.98
2023-05-20T12:55:25.326Z,18.02
2023-05-20T12:57:52.507Z,18.03
2023-05-20T13:00:19.626Z,18.10
2023-05-20T13:02:46.826Z,18.13
2023-05-20T13:05:14.093Z,18.09
2023-05-20T13:07:41.250Z,18.11
2023-05-20T13:10:10.605Z,18.18
2023-05-20T13:12:38.479Z,18.25
2023-05-20T13:15:06.169Z,18.37
2023-05-20T13:17:33.324Z,18.39
2023-05-20T13:20:00.374Z,18.56
2023-05-20T13:22:27.610Z,18.69
2023-05-20T13:24:54.796Z,18.81
2023-05-20T13:27:21.868Z,18.92
2023-05-20T13:29:48.915Z,19.02
2023-05-20T13:32:16.236Z,18.90
2023-05-20T13:34:43.276Z,18.81
2023-05-20T13:37:10.324Z,18.73
2023-05-20T13:39:37.760Z,18.76
2023-05-20T13:42:04.926Z,18.79
2023-05-20T13:44:32.763Z,18.81
2023-05-20T13:47:00.341Z,18.84
2023-05-20T13:49:27.814Z,18.95
2023-05-20T13:51:54.867Z,18.97
2023-05-20T13:54:22.318Z,18.96
2023-05-20T13:56:49.510Z,18.80
2023-05-20T13:59:16.748Z,18.69
2023-05-20T14:01:45.658Z,18.66
2023-05-20T14:04:12.931Z,18.59
2023-05-20T14:06:40.883Z,18.62
2023-05-20T14:09:09.357Z,18.68
2023-05-20T14:11:37.166Z,18.69
2023-05-20T14:14:04.491Z,18.73
2023-05-20T14:16:32.859Z,18.82
2023-05-20T14:19:00.136Z,18.87
2023-05-20T14:21:27.307Z,18.91
2023-05-20T14:23:54.393Z,18.90
2023-05-20T14:26:21.890Z,18.85
2023-05-20T14:28:49.248Z,18.81
2023-05-20T14:31:16.592Z,18.74
2023-05-20T14:33:43.760Z,18.64
2023-05-20T14:36:11.571Z,18.80
2023-05-20T14:38:38.974Z,18.96
2023-05-20T14:41:06.102Z,19.10
2023-05-20T14:43:33.390Z,19.14
2023-05-20T14:46:00.990Z,19.39
2023-05-20T14:48:28.036Z,19.58
2023-05-20T14:50:55.114Z,19.98
2023-05-20T14:53:22.960Z,20.15
2023-05-20T14:55:49.996Z,19.80
2023-05-20T14:58:17.053Z,19.74
2023-05-20T15:00:44.787Z,19.89
2023-05-20T15:03:12.091Z,19.74
2023-05-20T15:05:39.326Z,19.64
2023-05-20T15:08:06.549Z,19.44
2023-05-20T15:10:33.865Z,19.25
2023-05-20T15:13:01.173Z,19.17
2023-05-20T15:15:28.334Z,19.04
2023-05-20T15:17:56.015Z,18.98
2023-05-20T15:20:23.171Z,18.98
2023-05-20T15:22:50.347Z,18.94
2023-05-20T15:25:17.539Z,19.04
2023-05-20T15:27:44.658Z,19.03
2023-05-20T15:30:12.394Z,18.87
2023-05-20T15:32:40.166Z,18.70
2023-05-20T15:35:07.797Z,18.67
2023-05-20T15:37:34.926Z,18.65
2023-05-20T15:40:02.216Z,18.78
2023-05-20T15:42:29.509Z,19.36
2023-05-20T15:44:57.191Z,20.01
2023-05-20T15:47:24.366Z,19.53
2023-05-20T15:49:51.685Z,19.34
2023-05-20T15:52:18.810Z,19.23
2023-05-20T15:54:46.128Z,19.03
2023-05-20T15:57:13.247Z,19.10
2023-05-20T15:59:40.396Z,19.22
2023-05-20T16:02:07.705Z,19.96
2023-05-20T16:04:34.956Z,20.28
2023-05-20T16:07:02.910Z,19.82
2023-05-20T16:09:30.271Z,19.43
2023-05-20T16:11:57.425Z,19.21
2023-05-20T16:14:24.592Z,19.00
2023-05-20T16:16:51.623Z,18.83
2023-05-20T16:19:18.744Z,18.80
2023-05-20T16:21:46.202Z,18.78
2023-05-20T16:24:13.712Z,18.80
2023-05-20T16:26:41.092Z,19.03
2023-05-20T16:29:08.212Z,18.87
2023-05-20T16:31:35.347Z,18.71
2023-05-20T16:34:04.043Z,18.57
2023-05-20T16:36:31.212Z,18.42
2023-05-20T16:38:58.288Z,18.35
2023-05-20T16:41:25.348Z,18.30
2023-05-20T16:43:52.397Z,18.22
2023-05-20T16:46:19.682Z,18.20
2023-05-20T16:48:46.882Z,18.22
2023-05-20T16:51:13.942Z,18.25
2023-05-20T16:53:41.068Z,18.25
2023-05-20T16:56:08.289Z,18.16
2023-05-20T16:58:35.395Z,18.14
2023-05-20T17:01:02.481Z,18.08
2023-05-20T17:03:29.672Z,18.05
2023-05-20T17:05:57.414Z,18.02
2023-05-20T17:08:24.498Z,17.99
2023-05-20T17:10:54.135Z,17.97
2023-05-20T17:13:21.900Z,18.06
2023-05-20T17:15:48.941Z,18.22
2023-05-20T17:18:16.161Z,18.25
2023-05-20T17:20:43.501Z,18.32
2023-05-20T17:23:10.836Z,18.14
2023-05-20T17:25:37.946Z,18.02
2023-05-20T17:28:05.175Z,17.95
2023-05-20T17:30:32.434Z,17.93
2023-05-20T17:32:59.731Z,17.93
2023-05-20T17:35:28.013Z,17.97
2023-05-20T17:37:55.337Z,18.01
2023-05-20T17:40:22.620Z,17.95
2023-05-20T17:42:49.720Z,17.92
2023-05-20T17:45:16.929Z,17.82
2023-05-20T17:47:44.163Z,17.73
2023-05-20T17:50:11.609Z,17.74
2023-05-20T17:52:38.706Z,17.72
2023-05-20T17:55:06.901Z,17.67
2023-05-20T17:57:34.477Z,17.66
2023-05-20T18:00:02.422Z,17.66
2023-05-20T18:02:29.990Z,17.63
2023-05-20T18:04:57.106Z,17.61
2023-05-20T18:07:26.647Z,17.57
2023-05-20T18:09:53.781Z,17.52
2023-05-20T18:12:20.986Z,17.51
2023-05-20T18:14:48.101Z,17.44
2023-05-20T18:17:15.166Z,17.37
2023-05-20T18:19:42.236Z,17.36
2023-05-20T18:22:09.344Z,17.33
2023-05-20T18:24:36.832Z,17.34
2023-05-20T18:27:04.068Z,17.33
2023-05-20T18:29:31.207Z,17.28
2023-05-20T18:31:58.350Z,17.24
2023-05-20T18:34:25.864Z,17.21
2023-05-20T18:36:53.022Z,17.20
2023-05-20T18:39:21.183Z,17.20
2023-05-20T18:41:48.710Z,17.16
2023-05-20T18:44:17.375Z,17.13
2023-05-20T18:46:44.866Z,17.09
2023-05-20T18:49:12.067Z,17.08
2023-05-20T18:51:40.179Z,17.05
2023-05-20T18:54:07.542Z,17.02
2023-05-20T18:56:34.802Z,16.95
2023-05-20T18:59:02.065Z,16.94
2023-05-20T19:01:29.525Z,16.91
2023-05-20T19:03:56.726Z,16.87
2023-05-20T19:06:24.116Z,16.87
2023-05-20T19:08:51.354Z,16.85
2023-05-20T19:11:18.585Z,16.85
2023-05-20T19:13:45.796Z,16.83
2023-05-20T19:16:12.988Z,16.82
2023-05-20T19:18:40.152Z,16.81
2023-05-20T19:21:07.199Z,16.78
2023-05-20T19:23:34.271Z,16.80
2023-05-20T19:26:01.391Z,16.79
2023-05-20T19:28:28.605Z,16.75
2023-05-20T19:30:55.913Z,16.73
2023-05-20T19:33:23.110Z,16.74
2023-05-20T19:35:50.343Z,16.76
2023-05-20T19:38:17.553Z,16.81
2023-05-20T19:40:45.230Z,16.79
2023-05-20T19:43:12.578Z,16.77
2023-05-20T19:45:40.245Z,16.78
2023-05-20T19:48:08.048Z,16.78
2023-05-20T19:50:35.194Z,16.74
2023-05-20T19:53:06.436Z,16.69
2023-05-20T19:55:36.305Z,16.69
2023-05-20T19:58:03.909Z,16.67
2023-05-20T20:00:31.225Z,16.67
2023-05-20T20:02:59.345Z,16.64
2023-05-20T20:05:26.943Z,16.63
2023-05-20T20:07:54.249Z,16.66
2023-05-20T20:10:21.731Z,16.62
2023-05-20T20:12:49.104Z,16.56
2023-05-20T20:15:17.212Z,16.54
2023-05-20T20:17:46.146Z,16.55
2023-05-20T20:20:14.465Z,16.56
2023-05-20T20:22:42.049Z,16.54
2023-05-20T20:25:09.359Z,16.51
2023-05-20T20:27:36.468Z,16.52
2023-05-20T20:30:03.962Z,16.51
2023-05-20T20:32:31.381Z,16.48
2023-05-20T20:34:58.678Z,16.43
2023-05-20T20:37:27.055Z,16.46
2023-05-20T20:39:56.876Z,16.47
2023-05-20T20:42:23.948Z,16.42
2023-05-20T20:44:54.213Z,16.44
2023-05-20T20:47:21.420Z,16.44
2023-05-20T20:49:48.685Z,16.45
2023-05-20T20:52:16.095Z,16.38
2023-05-20T20:54:43.544Z,16.39
2023-05-20T20:57:11.740Z,16.38
2023-05-20T20:59:40.021Z,16.39
2023-05-20T21:02:07.529Z,16.36
2023-05-20T21:04:34.756Z,16.37
2023-05-20T21:07:02.342Z,16.38
2023-05-20T21:09:29.526Z,16.40
2023-05-20T21:11:57.451Z,16.36
2023-05-20T21:14:25.457Z,16.35
2023-05-20T21:16:53.073Z,16.32
2023-05-20T21:19:20.332Z,16.37
2023-05-20T21:21:47.458Z,16.40
2023-05-20T21:24:14.776Z,16.36
2023-05-20T21:26:41.898Z,16.34
2023-05-20T21:29:10.165Z,16.33
2023-05-20T21:31:38.010Z,16.32
2023-05-20T21:34:05.912Z,16.37
2023-05-20T21:36:33.092Z,16.33
2023-05-20T21:39:00.285Z,16.32
2023-05-20T21:41:27.702Z,16.31
2023-05-20T21:43:55.112Z,16.31
2023-05-20T21:46:22.339Z,16.27
2023-05-20T21:48:49.552Z,16.24
2023-05-20T21:51:16.748Z,16.20
2023-05-20T21:53:44.169Z,16.12
2023-05-20T21:56:13.637Z,16.10
2023-05-20T21:58:42.018Z,16.08
2023-05-20T22:01:10.353Z,16.08
2023-05-20T22:03:41.251Z,16.08
2023-05-20T22:06:08.406Z,16.03
2023-05-20T22:08:35.467Z,16.03
2023-05-20T22:11:07.566Z,16.02
2023-05-20T22:13:36.048Z,16.02
2023-05-20T22:16:08.318Z,16.02
2023-05-20T22:18:38.700Z,16.00
2023-05-20T22:21:06.667Z,16.02
2023-05-20T22:23:33.750Z,15.96
2023-05-20T22:26:01.759Z,15.94
2023-05-20T22:28:29.012Z,15.92
2023-05-20T22:30:56.445Z,15.92
2023-05-20T22:33:25.620Z,15.90
2023-05-20T22:35:54.024Z,15.90
2023-05-20T22:38:21.495Z,15.91
2023-05-20T22:40:48.697Z,15.93
2023-05-20T22:43:16.693Z,15.93
2023-05-20T22:45:46.308Z,15.86
2023-05-20T22:48:13.508Z,15.79
2023-05-20T22:50:41.824Z,15.78
2023-05-20T22:53:08.941Z,15.83
2023-05-20T22:55:38.911Z,15.79
2023-05-20T22:58:06.072Z,15.78
2023-05-20T23:00:33.387Z,15.74
2023-05-20T23:03:00.718Z,15.70
2023-05-20T23:05:30.385Z,15.65
2023-05-20T23:07:59.075Z,15.57
2023-05-20T23:10:26.385Z,15.53
2023-05-20T23:12:53.427Z,15.52
2023-05-20T23:15:20.556Z,15.44
2023-05-20T23:17:49.413Z,15.43
2023-05-20T23:20:19.467Z,15.37
2023-05-20T23:22:46.793Z,15.35
2023-05-20T23:25:14.592Z,15.32
2023-05-20T23:27:41.760Z,15.33
2023-05-20T23:30:09.679Z,15.27
2023-05-20T23:32:37.112Z,15.22
2023-05-20T23:35:05.031Z,15.18
2023-05-20T23:37:34.432Z,15.15
2023-05-20T23:40:01.470Z,15.12
2023-05-20T23:42:29.164Z,15.09
2023-05-20T23:44:56.364Z,15.07
2023-05-20T23:47:26.328Z,15.00
2023-05-20T23:49:56.064Z,14.94
2023-05-20T23:52:24.979Z,14.96
2023-05-20T23:54:52.866Z,14.89
2023-05-20T23:57:20.977Z,14.87
2023-05-20T23:59:51.456Z,14.82
